createdAt,value
2022-10-07T00:00:29.777Z,25.10
2022-10-07T00:01:31.417Z,25.09
2022-10-07T00:02:32.988Z,25.07
2022-10-07T00:03:34.797Z,25.07
2022-10-07T00:04:37.136Z,25.07
2022-10-07T00:05:38.639Z,25.08
2022-10-07T00:06:40.245Z,25.07
2022-10-07T00:07:42.039Z,25.06
2022-10-07T00:08:46.856Z,25.04
2022-10-07T00:09:48.372Z,25.06
2022-10-07T00:10:50.228Z,25.06
2022-10-07T00:11:51.769Z,25.08
2022-10-07T00:12:53.893Z,25.08
2022-10-07T00:13:58.273Z,25.09
2022-10-07T00:14:59.817Z,25.10
2022-10-07T00:16:10.369Z,25.07
2022-10-07T00:17:11.935Z,25.09
2022-10-07T00:18:13.443Z,25.10
2022-10-07T00:19:15.078Z,25.09
2022-10-07T00:20:16.697Z,25.11
2022-10-07T00:21:19.648Z,25.09
2022-10-07T00:22:21.181Z,25.09
2022-10-07T00:23:22.668Z,25.10
2022-10-07T00:24:24.215Z,25.08
2022-10-07T00:25:25.974Z,25.08
2022-10-07T00:26:30.325Z,25.08
2022-10-07T00:27:31.882Z,25.08
2022-10-07T00:28:34.343Z,25.07
2022-10-07T00:29:35.895Z,25.05
2022-10-07T00:30:37.485Z,25.07
2022-10-07T00:31:39.189Z,25.07
2022-10-07T00:32:40.702Z,25.07
2022-10-07T00:33:43.106Z,25.06
2022-10-07T00:34:44.655Z,25.06
2022-10-07T00:35:46.183Z,25.06
2022-10-07T00:36:50.606Z,25.06
2022-10-07T00:37:52.104Z,25.06
2022-10-07T00:38:58.875Z,25.07
2022-10-07T00:40:00.392Z,25.05
2022-10-07T00:41:01.981Z,25.07
2022-10-07T00:42:03.605Z,25.06
2022-10-07T00:43:32.243Z,25.01
2022-10-07T00:44:44.064Z,25.07
2022-10-07T00:45:45.690Z,25.07
2022-10-07T00:46:47.705Z,25.05
2022-10-07T00:47:51.235Z,25.03
2022-10-07T00:48:54.194Z,25.05
2022-10-07T00:49:58.493Z,25.03
2022-10-07T00:51:01.843Z,25.04
2022-10-07T00:52:03.643Z,25.02
2022-10-07T00:53:05.270Z,25.04
2022-10-07T00:54:16.246Z,25.00
2022-10-07T00:55:21.179Z,25.03
2022-10-07T00:56:25.831Z,25.02
2022-10-07T00:57:29.233Z,25.03
2022-10-07T00:58:34.561Z,25.01
2022-10-07T00:59:40.117Z,25.03
2022-10-07T01:00:42.591Z,25.03
2022-10-07T01:01:44.333Z,25.03
2022-10-07T01:02:46.274Z,25.01
2022-10-07T01:03:49.156Z,25.01
2022-10-07T01:04:52.773Z,25.01
2022-10-07T01:05:54.857Z,25.00
2022-10-07T01:06:57.036Z,25.00
2022-10-07T01:07:59.775Z,25.00
2022-10-07T01:09:01.387Z,24.99
2022-10-07T01:10:04.268Z,24.98
2022-10-07T01:11:17.518Z,24.96
2022-10-07T01:12:40.189Z,24.96
2022-10-07T01:13:55.660Z,24.98
2022-10-07T01:15:12.204Z,24.98
2022-10-07T01:16:23.326Z,24.99
2022-10-07T01:17:37.583Z,24.98
2022-10-07T01:18:57.812Z,24.96
2022-10-07T01:20:23.483Z,24.94
2022-10-07T01:21:54.105Z,24.94
2022-10-07T01:23:03.333Z,24.97
2022-10-07T01:24:33.352Z,24.97
2022-10-07T01:25:45.735Z,24.96
2022-10-07T01:26:56.564Z,24.92
2022-10-07T01:28:10.422Z,24.92
2022-10-07T01:29:21.580Z,24.92
2022-10-07T01:30:23.214Z,24.94
2022-10-07T01:31:30.466Z,24.92
2022-10-07T01:32:35.055Z,24.93
2022-10-07T01:33:39.407Z,24.91
2022-10-07T01:34:42.999Z,24.92
2022-10-07T01:35:49.667Z,24.89
2022-10-07T01:36:54.443Z,24.92
2022-10-07T01:38:00.495Z,24.91
2022-10-07T01:39:08.944Z,24.89
2022-10-07T01:40:15.690Z,24.90
2022-10-07T01:41:19.841Z,24.90
2022-10-07T01:42:22.819Z,24.91
2022-10-07T01:43:24.788Z,24.91
2022-10-07T01:44:29.851Z,24.87
2022-10-07T01:45:35.356Z,24.90
2022-10-07T01:46:38.024Z,24.89
2022-10-07T01:47:40.470Z,24.89
2022-10-07T01:48:42.028Z,24.89
2022-10-07T01:49:43.563Z,24.89
2022-10-07T01:50:45.993Z,24.91
2022-10-07T01:52:03.584Z,24.85
2022-10-07T01:53:36.434Z,24.87
2022-10-07T01:55:16.671Z,24.85
2022-10-07T01:56:27.147Z,24.88
2022-10-07T01:58:00.947Z,24.86
2022-10-07T01:59:16.332Z,24.87
2022-10-07T02:00:18.506Z,24.91
2022-10-07T02:01:31.855Z,24.86
2022-10-07T02:03:04.944Z,24.85
2022-10-07T02:04:37.127Z,24.88
2022-10-07T02:05:54.690Z,24.84
2022-10-07T02:07:16.567Z,24.84
2022-10-07T02:08:39.896Z,24.83
2022-10-07T02:10:13.434Z,24.81
2022-10-07T02:11:21.652Z,24.85
2022-10-07T02:12:45.374Z,24.79
2022-10-07T02:14:01.010Z,24.80
2022-10-07T02:15:20.108Z,24.78
2022-10-07T02:16:43.428Z,24.79
2022-10-07T02:17:49.984Z,24.81
2022-10-07T02:18:52.625Z,24.83
2022-10-07T02:19:56.528Z,24.82
2022-10-07T02:20:59.654Z,24.83
2022-10-07T02:22:03.070Z,24.81
2022-10-07T02:23:08.779Z,24.80
2022-10-07T02:24:12.542Z,24.80
2022-10-07T02:25:17.760Z,24.82
2022-10-07T02:26:22.546Z,24.82
2022-10-07T02:27:28.139Z,24.80
2022-10-07T02:28:31.645Z,24.80
2022-10-07T02:29:38.228Z,24.80
2022-10-07T02:30:41.957Z,24.83
2022-10-07T02:31:45.819Z,24.81
2022-10-07T02:32:54.494Z,24.80
2022-10-07T02:33:58.823Z,24.83
2022-10-07T02:35:05.390Z,24.82
2022-10-07T02:36:12.994Z,24.80
2022-10-07T02:37:19.773Z,24.78
2022-10-07T02:38:22.211Z,24.83
2022-10-07T02:39:23.787Z,24.83
2022-10-07T02:40:32.367Z,24.79
2022-10-07T02:42:00.542Z,24.78
2022-10-07T02:43:21.255Z,24.81
2022-10-07T02:44:30.794Z,24.82
2022-10-07T02:45:43.242Z,24.82
2022-10-07T02:46:54.463Z,24.81
2022-10-07T02:48:01.473Z,24.83
2022-10-07T02:49:07.732Z,24.84
2022-10-07T02:50:12.890Z,24.85
2022-10-07T02:51:21.503Z,24.83
2022-10-07T02:52:25.188Z,24.87
2022-10-07T02:53:29.877Z,24.84
2022-10-07T02:54:45.809Z,24.79
2022-10-07T02:55:50.643Z,24.83
2022-10-07T02:56:53.764Z,24.82
2022-10-07T02:57:59.691Z,24.80
2022-10-07T02:59:03.564Z,24.83
2022-10-07T03:00:11.085Z,24.81
2022-10-07T03:01:17.508Z,24.80
2022-10-07T03:02:30.263Z,24.79
2022-10-07T03:03:31.979Z,24.81
2022-10-07T03:04:33.676Z,24.79
2022-10-07T03:05:35.452Z,24.78
2022-10-07T03:06:37.023Z,24.78
2022-10-07T03:07:38.746Z,24.78
2022-10-07T03:08:41.814Z,24.78
2022-10-07T03:09:43.590Z,24.79
2022-10-07T03:10:45.183Z,24.78
2022-10-07T03:11:46.963Z,24.75
2022-10-07T03:12:48.580Z,24.76
2022-10-07T03:13:50.504Z,24.76
2022-10-07T03:14:52.288Z,24.77
2022-10-07T03:15:53.846Z,24.79
2022-10-07T03:16:55.396Z,24.77
2022-10-07T03:17:56.931Z,24.76
2022-10-07T03:19:01.246Z,24.76
2022-10-07T03:20:02.882Z,24.76
2022-10-07T03:21:04.521Z,24.77
2022-10-07T03:22:06.035Z,24.75
2022-10-07T03:23:07.633Z,24.76
2022-10-07T03:24:09.250Z,24.77
2022-10-07T03:25:12.024Z,24.77
2022-10-07T03:26:13.598Z,24.77
2022-10-07T03:27:15.164Z,24.78
2022-10-07T03:28:16.768Z,24.77
2022-10-07T03:29:18.798Z,24.75
2022-10-07T03:30:24.664Z,24.76
2022-10-07T03:31:27.708Z,24.77
2022-10-07T03:32:29.781Z,24.78
2022-10-07T03:33:31.365Z,24.77
2022-10-07T03:34:33.077Z,24.77
2022-10-07T03:35:34.616Z,24.77
2022-10-07T03:36:36.248Z,24.78
2022-10-07T03:37:37.856Z,24.75
2022-10-07T03:38:39.477Z,24.78
2022-10-07T03:39:41.284Z,24.77
2022-10-07T03:40:44.353Z,24.78
2022-10-07T03:41:48.461Z,24.76
2022-10-07T03:42:50.534Z,24.76
2022-10-07T03:43:52.145Z,24.74
2022-10-07T03:44:53.746Z,24.75
2022-10-07T03:45:57.090Z,24.75
2022-10-07T03:46:58.896Z,24.75
2022-10-07T03:48:00.714Z,24.73
2022-10-07T03:49:03.323Z,24.73
2022-10-07T03:50:05.393Z,24.74
2022-10-07T03:51:06.994Z,24.74
2022-10-07T03:52:08.537Z,24.74
2022-10-07T03:53:10.525Z,24.75
2022-10-07T03:54:12.155Z,24.75
2022-10-07T03:55:13.793Z,24.73
2022-10-07T03:56:15.334Z,24.74
2022-10-07T03:57:35.269Z,24.74
2022-10-07T03:58:36.814Z,24.75
2022-10-07T03:59:39.390Z,24.74
2022-10-07T04:00:41.326Z,24.74
2022-10-07T04:01:43.003Z,24.72
2022-10-07T04:02:44.697Z,24.72
2022-10-07T04:03:46.439Z,24.72
2022-10-07T04:04:47.994Z,24.72
2022-10-07T04:05:59.706Z,24.70
2022-10-07T04:07:01.474Z,24.74
2022-10-07T04:08:04.974Z,24.73
2022-10-07T04:09:06.607Z,24.73
2022-10-07T04:10:08.480Z,24.73
2022-10-07T04:11:10.701Z,24.74
2022-10-07T04:12:12.281Z,24.75
2022-10-07T04:13:13.803Z,24.73
2022-10-07T04:14:16.575Z,24.73
2022-10-07T04:15:19.153Z,24.73
2022-10-07T04:16:20.948Z,24.73
2022-10-07T04:17:24.344Z,24.71
2022-10-07T04:18:26.095Z,24.71
2022-10-07T04:19:27.704Z,24.70
2022-10-07T04:20:29.251Z,24.71
2022-10-07T04:21:30.829Z,24.73
2022-10-07T04:22:32.680Z,24.72
2022-10-07T04:23:35.686Z,24.71
2022-10-07T04:24:37.219Z,24.71
2022-10-07T04:25:45.902Z,24.70
2022-10-07T04:26:47.417Z,24.71
2022-10-07T04:27:56.939Z,24.68
2022-10-07T04:28:59.272Z,24.71
2022-10-07T04:30:00.916Z,24.71
2022-10-07T04:31:08.789Z,24.70
2022-10-07T04:32:10.458Z,24.72
2022-10-07T04:33:12.392Z,24.72
2022-10-07T04:34:13.990Z,24.72
2022-10-07T04:35:15.691Z,24.73
2022-10-07T04:36:17.222Z,24.70
2022-10-07T04:37:19.162Z,24.71
2022-10-07T04:38:22.465Z,24.73
2022-10-07T04:39:42.812Z,24.71
2022-10-07T04:40:52.953Z,24.72
2022-10-07T04:41:54.820Z,24.73
2022-10-07T04:43:14.965Z,24.71
2022-10-07T04:44:16.553Z,24.70
2022-10-07T04:45:18.119Z,24.70
2022-10-07T04:46:19.666Z,24.70
2022-10-07T04:47:21.206Z,24.69
2022-10-07T04:48:23.771Z,24.70
2022-10-07T04:49:26.337Z,24.69
2022-10-07T04:50:28.625Z,24.70
2022-10-07T04:51:31.207Z,24.69
2022-10-07T04:52:32.913Z,24.67
2022-10-07T04:53:35.348Z,24.67
2022-10-07T04:54:39.319Z,24.68
2022-10-07T04:55:47.930Z,24.67
2022-10-07T04:56:49.978Z,24.73
2022-10-07T04:57:51.578Z,24.71
2022-10-07T04:58:53.264Z,24.72
2022-10-07T04:59:54.767Z,24.71
2022-10-07T05:00:57.695Z,24.72
2022-10-07T05:01:59.247Z,24.73
2022-10-07T05:03:01.155Z,24.77
2022-10-07T05:04:03.005Z,24.82
2022-10-07T05:05:04.836Z,24.92
2022-10-07T05:06:07.109Z,25.03
2022-10-07T05:07:10.041Z,25.11
2022-10-07T05:08:13.228Z,25.21
2022-10-07T05:09:14.803Z,25.31
2022-10-07T05:10:16.449Z,25.39
2022-10-07T05:11:18.156Z,25.45
2022-10-07T05:12:19.841Z,25.53
2022-10-07T05:13:22.470Z,25.57
2022-10-07T05:14:24.069Z,25.65
2022-10-07T05:15:25.689Z,25.72
2022-10-07T05:16:27.280Z,25.75
2022-10-07T05:17:28.851Z,25.78
2022-10-07T05:18:31.763Z,25.81
2022-10-07T05:19:33.797Z,25.86
2022-10-07T05:20:39.689Z,25.88
2022-10-07T05:21:42.090Z,25.90
2022-10-07T05:22:43.652Z,25.93
2022-10-07T05:23:45.458Z,25.93
2022-10-07T05:24:47.150Z,25.91
2022-10-07T05:26:07.969Z,25.86
2022-10-07T05:27:09.644Z,25.91
2022-10-07T05:28:12.830Z,25.90
2022-10-07T05:29:14.422Z,25.88
2022-10-07T05:30:16.013Z,25.84
2022-10-07T05:31:17.607Z,25.82
2022-10-07T05:32:19.189Z,25.80
2022-10-07T05:33:20.716Z,25.77
2022-10-07T05:34:22.598Z,25.77
2022-10-07T05:35:24.140Z,25.73
2022-10-07T05:36:26.120Z,25.72
2022-10-07T05:37:28.428Z,25.73
2022-10-07T05:38:30.053Z,25.73
2022-10-07T05:39:31.627Z,25.71
2022-10-07T05:40:33.146Z,25.71
2022-10-07T05:41:44.897Z,25.72
2022-10-07T05:42:47.653Z,25.72
2022-10-07T05:43:49.178Z,25.69
2022-10-07T05:44:50.719Z,25.73
2022-10-07T05:46:02.428Z,25.69
2022-10-07T05:47:04.681Z,25.73
2022-10-07T05:48:06.188Z,25.73
2022-10-07T05:49:08.037Z,25.72
2022-10-07T05:50:10.328Z,25.71
2022-10-07T05:51:14.111Z,25.70
2022-10-07T05:52:15.737Z,25.70
2022-10-07T05:53:17.259Z,25.70
2022-10-07T05:54:18.803Z,25.67
2022-10-07T05:55:20.348Z,25.65
2022-10-07T05:56:22.417Z,25.61
2022-10-07T05:57:24.361Z,25.60
2022-10-07T05:58:25.892Z,25.58
2022-10-07T05:59:27.416Z,25.55
2022-10-07T06:00:29.122Z,25.55
2022-10-07T06:01:30.872Z,25.51
2022-10-07T06:02:32.554Z,25.50
2022-10-07T06:03:34.362Z,25.48
2022-10-07T06:04:37.171Z,25.45
2022-10-07T06:05:38.739Z,25.43
2022-10-07T06:06:40.286Z,25.40
2022-10-07T06:07:41.869Z,25.40
2022-10-07T06:08:43.617Z,25.40
2022-10-07T06:10:03.313Z,25.38
2022-10-07T06:11:24.563Z,25.35
2022-10-07T06:12:44.931Z,25.35
2022-10-07T06:13:54.143Z,25.33
2022-10-07T06:14:55.701Z,25.33
2022-10-07T06:16:15.720Z,25.29
2022-10-07T06:17:17.261Z,25.34
2022-10-07T06:18:18.844Z,25.31
2022-10-07T06:19:22.979Z,25.30
2022-10-07T06:20:24.681Z,25.29
2022-10-07T06:21:28.156Z,25.27
2022-10-07T06:22:30.003Z,25.26
2022-10-07T06:23:33.040Z,25.24
2022-10-07T06:24:35.278Z,25.24
2022-10-07T06:25:36.835Z,25.24
2022-10-07T06:26:38.356Z,25.24
2022-10-07T06:27:39.977Z,25.21
2022-10-07T06:28:42.205Z,25.22
2022-10-07T06:29:43.907Z,25.23
2022-10-07T06:30:45.515Z,25.21
2022-10-07T06:31:47.052Z,25.23
2022-10-07T06:32:48.550Z,25.21
2022-10-07T06:33:50.799Z,25.16
2022-10-07T06:34:52.399Z,25.19
2022-10-07T06:35:58.838Z,25.18
2022-10-07T06:37:03.779Z,25.21
2022-10-07T06:38:06.099Z,25.21
2022-10-07T06:39:07.762Z,25.21
2022-10-07T06:40:09.909Z,25.22
2022-10-07T06:41:11.450Z,25.20
2022-10-07T06:42:13.225Z,25.21
2022-10-07T06:43:14.752Z,25.21
2022-10-07T06:44:16.271Z,25.21
2022-10-07T06:45:17.843Z,25.21
2022-10-07T06:46:20.739Z,25.20
2022-10-07T06:47:22.293Z,25.21
2022-10-07T06:48:23.802Z,25.21
2022-10-07T06:49:25.363Z,25.21
2022-10-07T06:50:27.001Z,25.19
2022-10-07T06:51:28.763Z,25.21
2022-10-07T06:52:30.447Z,25.20
2022-10-07T06:53:32.823Z,25.20
2022-10-07T06:54:34.738Z,25.19
2022-10-07T06:55:37.755Z,25.20
2022-10-07T06:56:39.336Z,25.19
2022-10-07T06:57:45.799Z,25.20
2022-10-07T06:58:49.825Z,25.21
2022-10-07T06:59:51.798Z,25.19
2022-10-07T07:00:54.208Z,25.19
2022-10-07T07:01:55.888Z,25.19
2022-10-07T07:03:01.439Z,25.17
2022-10-07T07:04:03.351Z,25.18
2022-10-07T07:05:08.285Z,25.17
2022-10-07T07:06:11.180Z,25.19
2022-10-07T07:07:12.766Z,25.19
2022-10-07T07:08:17.332Z,25.18
2022-10-07T07:09:21.429Z,25.18
2022-10-07T07:10:22.982Z,25.17
2022-10-07T07:11:37.089Z,25.18
2022-10-07T07:12:38.691Z,25.19
2022-10-07T07:13:42.582Z,25.17
2022-10-07T07:14:46.954Z,25.16
2022-10-07T07:16:00.093Z,25.13
2022-10-07T07:17:01.826Z,25.17
2022-10-07T07:18:05.485Z,25.17
2022-10-07T07:19:10.554Z,25.15
2022-10-07T07:20:13.321Z,25.18
2022-10-07T07:21:14.908Z,25.16
2022-10-07T07:22:16.440Z,25.17
2022-10-07T07:23:18.539Z,25.16
2022-10-07T07:24:20.946Z,25.18
2022-10-07T07:25:22.527Z,25.16
2022-10-07T07:26:24.757Z,25.18
2022-10-07T07:27:26.304Z,25.17
2022-10-07T07:28:27.904Z,25.19
2022-10-07T07:29:29.459Z,25.18
2022-10-07T07:30:31.487Z,25.16
2022-10-07T07:31:35.497Z,25.17
2022-10-07T07:32:37.023Z,25.16
2022-10-07T07:33:39.482Z,25.18
2022-10-07T07:34:41.056Z,25.16
2022-10-07T07:35:43.545Z,25.17
2022-10-07T07:36:48.214Z,25.18
2022-10-07T07:37:50.442Z,25.19
2022-10-07T07:38:58.549Z,25.18
2022-10-07T07:40:00.213Z,25.20
2022-10-07T07:41:06.506Z,25.16
2022-10-07T07:42:08.382Z,25.21
2022-10-07T07:43:09.892Z,25.19
2022-10-07T07:44:13.542Z,25.19
2022-10-07T07:45:15.506Z,25.20
2022-10-07T07:46:19.018Z,25.18
2022-10-07T07:47:21.259Z,25.19
2022-10-07T07:48:22.788Z,25.18
2022-10-07T07:49:24.610Z,25.20
2022-10-07T07:50:27.478Z,25.19
2022-10-07T07:51:29.008Z,25.19
2022-10-07T07:52:30.621Z,25.17
2022-10-07T07:53:32.184Z,25.19
2022-10-07T07:54:34.175Z,25.20
2022-10-07T07:55:35.775Z,25.18
2022-10-07T07:56:38.193Z,25.18
2022-10-07T07:57:39.766Z,25.19
2022-10-07T07:58:42.109Z,25.18
2022-10-07T07:59:43.970Z,25.18
2022-10-07T08:00:46.196Z,25.19
2022-10-07T08:01:47.863Z,25.20
2022-10-07T08:02:49.416Z,25.20
2022-10-07T08:03:52.249Z,25.20
2022-10-07T08:04:53.994Z,25.20
2022-10-07T08:05:56.174Z,25.21
2022-10-07T08:06:57.736Z,25.21
2022-10-07T08:07:59.216Z,25.21
2022-10-07T08:09:00.809Z,25.21
2022-10-07T08:10:02.377Z,25.22
2022-10-07T08:11:11.762Z,25.18
2022-10-07T08:12:14.734Z,25.21
2022-10-07T08:13:16.291Z,25.21
2022-10-07T08:14:18.011Z,25.22
2022-10-07T08:15:19.554Z,25.22
2022-10-07T08:16:22.927Z,25.22
2022-10-07T08:17:24.718Z,25.23
2022-10-07T08:18:27.078Z,25.23
2022-10-07T08:19:29.697Z,25.23
2022-10-07T08:20:31.239Z,25.22
2022-10-07T08:21:33.056Z,25.21
2022-10-07T08:22:37.160Z,25.20
2022-10-07T08:23:39.965Z,25.22
2022-10-07T08:24:42.241Z,25.22
2022-10-07T08:25:43.983Z,25.23
2022-10-07T08:26:47.389Z,25.20
2022-10-07T08:27:49.282Z,25.22
2022-10-07T08:28:50.861Z,25.23
2022-10-07T08:29:52.439Z,25.25
2022-10-07T08:30:55.207Z,25.23
2022-10-07T08:31:56.819Z,25.24
2022-10-07T08:33:01.326Z,25.24
2022-10-07T08:34:05.059Z,25.23
2022-10-07T08:35:06.854Z,25.24
2022-10-07T08:36:13.254Z,25.22
2022-10-07T08:37:14.811Z,25.25
2022-10-07T08:38:16.502Z,25.24
2022-10-07T08:39:18.051Z,25.24
2022-10-07T08:40:19.583Z,25.25
2022-10-07T08:41:24.131Z,25.24
2022-10-07T08:42:35.611Z,25.21
2022-10-07T08:43:41.725Z,25.25
2022-10-07T08:44:46.146Z,25.24
2022-10-07T08:45:48.405Z,25.25
2022-10-07T08:47:18.051Z,25.22
2022-10-07T08:48:29.388Z,25.23
2022-10-07T08:49:43.954Z,25.24
2022-10-07T08:51:04.149Z,25.26
2022-10-07T08:52:37.923Z,25.24
2022-10-07T08:53:39.699Z,25.29
2022-10-07T08:54:41.343Z,25.28
2022-10-07T08:55:49.925Z,25.22
2022-10-07T08:56:52.905Z,25.24
2022-10-07T08:58:04.330Z,25.24
2022-10-07T08:59:20.458Z,25.23
2022-10-07T09:00:24.915Z,25.27
2022-10-07T09:01:48.342Z,25.26
2022-10-07T09:03:14.314Z,25.22
2022-10-07T09:04:24.822Z,25.29
2022-10-07T09:05:32.730Z,25.28
2022-10-07T09:06:52.419Z,25.24
2022-10-07T09:08:01.585Z,25.24
2022-10-07T09:09:11.381Z,25.26
2022-10-07T09:10:40.435Z,25.26
2022-10-07T09:11:45.846Z,25.28
2022-10-07T09:13:16.095Z,25.22
2022-10-07T09:14:23.805Z,25.26
2022-10-07T09:15:39.511Z,25.27
2022-10-07T09:16:44.604Z,25.26
2022-10-07T09:17:54.455Z,25.22
2022-10-07T09:18:59.876Z,25.24
2022-10-07T09:20:16.470Z,25.23
2022-10-07T09:21:23.507Z,25.27
2022-10-07T09:22:37.288Z,25.28
2022-10-07T09:23:39.115Z,25.31
2022-10-07T09:24:40.662Z,25.30
2022-10-07T09:25:43.453Z,25.30
2022-10-07T09:26:45.012Z,25.31
2022-10-07T09:27:46.762Z,25.31
2022-10-07T09:28:50.339Z,25.32
2022-10-07T09:29:51.887Z,25.30
2022-10-07T09:30:53.560Z,25.33
2022-10-07T09:31:56.722Z,25.32
2022-10-07T09:32:58.338Z,25.28
2022-10-07T09:33:59.928Z,25.28
2022-10-07T09:35:05.994Z,25.29
2022-10-07T09:36:11.030Z,25.30
2022-10-07T09:37:20.659Z,25.29
2022-10-07T09:38:37.464Z,25.28
2022-10-07T09:39:39.931Z,25.32
2022-10-07T09:41:02.499Z,25.32
2022-10-07T09:42:08.732Z,25.34
2022-10-07T09:43:14.064Z,25.32
2022-10-07T09:44:15.722Z,25.32
2022-10-07T09:45:37.916Z,25.25
2022-10-07T09:46:49.393Z,25.30
2022-10-07T09:47:57.935Z,25.29
2022-10-07T09:49:04.459Z,25.32
2022-10-07T09:50:28.675Z,25.34
2022-10-07T09:51:32.357Z,25.33
2022-10-07T09:52:34.166Z,25.32
2022-10-07T09:53:35.719Z,25.31
2022-10-07T09:54:37.309Z,25.32
2022-10-07T09:55:41.281Z,25.31
2022-10-07T09:56:45.212Z,25.32
2022-10-07T09:58:00.224Z,25.31
2022-10-07T09:59:32.237Z,25.31
2022-10-07T10:00:43.366Z,25.34
2022-10-07T10:02:18.743Z,25.32
2022-10-07T10:03:20.991Z,25.37
2022-10-07T10:04:37.318Z,25.32
2022-10-07T10:05:41.317Z,25.36
2022-10-07T10:07:20.909Z,25.32
2022-10-07T10:08:32.780Z,25.35
2022-10-07T10:09:35.103Z,25.37
2022-10-07T10:10:37.067Z,25.34
2022-10-07T10:11:38.571Z,25.34
2022-10-07T10:12:51.874Z,25.27
2022-10-07T10:13:53.624Z,25.31
2022-10-07T10:15:01.676Z,25.30
2022-10-07T10:16:06.873Z,25.32
2022-10-07T10:17:22.700Z,25.27
2022-10-07T10:18:41.671Z,25.30
2022-10-07T10:19:43.183Z,25.33
2022-10-07T10:20:46.229Z,25.35
2022-10-07T10:21:52.673Z,25.33
2022-10-07T10:22:55.306Z,25.35
2022-10-07T10:24:05.970Z,25.35
2022-10-07T10:25:29.574Z,25.36
2022-10-07T10:26:38.331Z,25.35
2022-10-07T10:27:55.443Z,25.34
2022-10-07T10:29:11.049Z,25.34
2022-10-07T10:30:20.914Z,25.35
2022-10-07T10:31:46.178Z,25.35
2022-10-07T10:33:26.782Z,25.35
2022-10-07T10:34:35.257Z,25.38
2022-10-07T10:35:58.928Z,25.38
2022-10-07T10:37:14.415Z,25.37
2022-10-07T10:38:50.045Z,25.37
2022-10-07T10:40:07.416Z,25.40
2022-10-07T10:41:14.017Z,25.40
2022-10-07T10:42:22.726Z,25.38
2022-10-07T10:43:34.272Z,25.38
2022-10-07T10:44:56.039Z,25.36
2022-10-07T10:46:00.244Z,25.41
2022-10-07T10:47:05.024Z,25.39
2022-10-07T10:48:29.086Z,25.34
2022-10-07T10:49:55.697Z,25.32
2022-10-07T10:51:21.545Z,25.37
2022-10-07T10:52:45.291Z,25.33
2022-10-07T10:53:56.757Z,25.40
2022-10-07T10:55:07.800Z,25.34
2022-10-07T10:56:32.135Z,25.35
2022-10-07T10:58:00.004Z,25.33
2022-10-07T10:59:21.531Z,25.37
2022-10-07T11:00:23.680Z,25.38
2022-10-07T11:01:40.794Z,25.36
2022-10-07T11:03:01.180Z,25.40
2022-10-07T11:04:26.737Z,25.37
2022-10-07T11:05:37.355Z,25.38
2022-10-07T11:06:43.160Z,25.38
2022-10-07T11:07:54.312Z,25.37
2022-10-07T11:08:59.174Z,25.39
2022-10-07T11:10:06.124Z,25.37
2022-10-07T11:11:08.795Z,25.40
2022-10-07T11:12:26.495Z,25.38
2022-10-07T11:13:31.437Z,25.41
2022-10-07T11:14:48.951Z,25.38
2022-10-07T11:15:59.371Z,25.41
2022-10-07T11:17:06.799Z,25.42
2022-10-07T11:18:21.807Z,25.42
2022-10-07T11:19:36.362Z,25.39
2022-10-07T11:20:47.910Z,25.42
2022-10-07T11:21:54.761Z,25.42
2022-10-07T11:23:17.014Z,25.42
2022-10-07T11:24:40.730Z,25.45
2022-10-07T11:25:50.661Z,25.44
2022-10-07T11:27:26.751Z,25.39
2022-10-07T11:28:30.557Z,25.45
2022-10-07T11:30:06.656Z,25.37
2022-10-07T11:31:32.451Z,25.38
2022-10-07T11:32:34.278Z,25.43
2022-10-07T11:33:46.558Z,25.40
2022-10-07T11:34:59.678Z,25.37
2022-10-07T11:36:15.940Z,25.34
2022-10-07T11:37:21.910Z,25.36
2022-10-07T11:38:33.675Z,25.35
2022-10-07T11:39:39.591Z,25.40
2022-10-07T11:40:49.057Z,25.40
2022-10-07T11:41:53.464Z,25.41
2022-10-07T11:42:57.723Z,25.43
2022-10-07T11:44:06.492Z,25.42
2022-10-07T11:45:12.943Z,25.42
2022-10-07T11:46:26.240Z,25.40
2022-10-07T11:47:40.718Z,25.42
2022-10-07T11:48:49.924Z,25.42
2022-10-07T11:50:02.400Z,25.42
2022-10-07T11:51:07.325Z,25.46
2022-10-07T11:52:24.488Z,25.44
2022-10-07T11:53:28.697Z,25.46
2022-10-07T11:55:06.831Z,25.42
2022-10-07T11:56:23.643Z,25.44
2022-10-07T11:57:31.121Z,25.46
2022-10-07T11:58:37.286Z,25.46
2022-10-07T11:59:45.984Z,25.45
2022-10-07T12:00:47.848Z,25.48
2022-10-07T12:01:52.461Z,25.46
2022-10-07T12:02:55.890Z,25.48
2022-10-07T12:04:22.591Z,25.44
2022-10-07T12:05:36.169Z,25.44
2022-10-07T12:06:37.740Z,25.48
2022-10-07T12:07:43.285Z,25.46
2022-10-07T12:08:44.950Z,25.48
2022-10-07T12:09:59.135Z,25.46
2022-10-07T12:11:13.017Z,25.44
2022-10-07T12:12:14.665Z,25.47
2022-10-07T12:13:17.296Z,25.46
2022-10-07T12:14:41.459Z,25.40
2022-10-07T12:15:44.470Z,25.46
2022-10-07T12:16:55.143Z,25.42
2022-10-07T12:18:19.868Z,25.42
2022-10-07T12:19:23.966Z,25.49
2022-10-07T12:20:34.976Z,25.45
2022-10-07T12:22:04.672Z,25.46
2022-10-07T12:23:18.430Z,25.46
2022-10-07T12:24:19.957Z,25.52
2022-10-07T12:25:32.392Z,25.47
2022-10-07T12:26:34.933Z,25.51
2022-10-07T12:27:36.728Z,25.50
2022-10-07T12:28:41.900Z,25.49
2022-10-07T12:29:49.081Z,25.50
2022-10-07T12:30:56.748Z,25.46
2022-10-07T12:31:58.850Z,25.49
2022-10-07T12:33:01.086Z,25.48
2022-10-07T12:34:05.435Z,25.49
2022-10-07T12:35:37.303Z,25.45
2022-10-07T12:36:41.310Z,25.55
2022-10-07T12:37:46.323Z,25.54
2022-10-07T12:38:56.889Z,25.51
2022-10-07T12:39:59.358Z,25.54
2022-10-07T12:41:03.622Z,25.50
2022-10-07T12:42:08.326Z,25.51
2022-10-07T12:43:48.746Z,25.45
2022-10-07T12:44:52.792Z,25.51
2022-10-07T12:45:55.997Z,25.52
2022-10-07T12:47:05.172Z,25.49
2022-10-07T12:48:13.168Z,25.53
2022-10-07T12:49:21.090Z,25.53
2022-10-07T12:50:24.533Z,25.54
2022-10-07T12:51:39.292Z,25.51
2022-10-07T12:52:56.600Z,25.52
2022-10-07T12:53:59.932Z,25.56
2022-10-07T12:55:15.453Z,25.54
2022-10-07T12:56:28.114Z,25.52
2022-10-07T12:57:36.462Z,25.53
2022-10-07T12:59:11.856Z,25.52
2022-10-07T13:00:24.650Z,25.54
2022-10-07T13:02:04.731Z,25.50
2022-10-07T13:03:22.121Z,25.55
2022-10-07T13:04:26.597Z,25.54
2022-10-07T13:05:58.851Z,25.54
2022-10-07T13:07:22.060Z,25.52
2022-10-07T13:08:46.095Z,25.49
2022-10-07T13:10:18.798Z,25.49
2022-10-07T13:11:42.188Z,25.55
2022-10-07T13:12:46.068Z,25.54
2022-10-07T13:13:54.445Z,25.51
2022-10-07T13:15:25.097Z,25.51
2022-10-07T13:16:44.032Z,25.55
2022-10-07T13:18:00.688Z,25.51
2022-10-07T13:19:20.559Z,25.47
2022-10-07T13:20:34.433Z,25.54
2022-10-07T13:21:46.559Z,25.53
2022-10-07T13:22:49.477Z,25.52
2022-10-07T13:23:53.173Z,25.52
2022-10-07T13:24:56.403Z,25.53
2022-10-07T13:26:00.396Z,25.57
2022-10-07T13:27:02.065Z,25.58
2022-10-07T13:28:03.714Z,25.60
2022-10-07T13:29:06.472Z,25.59
2022-10-07T13:30:28.428Z,25.59
2022-10-07T13:31:33.358Z,25.62
2022-10-07T13:32:36.099Z,25.61
2022-10-07T13:33:37.627Z,25.64
2022-10-07T13:34:39.160Z,25.62
2022-10-07T13:35:41.790Z,25.62
2022-10-07T13:36:43.750Z,25.62
2022-10-07T13:37:47.481Z,25.64
2022-10-07T13:38:53.569Z,25.63
2022-10-07T13:39:56.958Z,25.65
2022-10-07T13:41:04.467Z,25.63
2022-10-07T13:42:11.985Z,25.61
2022-10-07T13:43:15.085Z,25.67
2022-10-07T13:44:20.058Z,25.66
2022-10-07T13:45:22.253Z,25.69
2022-10-07T13:46:27.382Z,25.70
2022-10-07T13:47:33.927Z,25.69
2022-10-07T13:48:41.868Z,25.68
2022-10-07T13:49:49.821Z,25.69
2022-10-07T13:50:55.039Z,25.68
2022-10-07T13:52:00.946Z,25.68
2022-10-07T13:53:02.548Z,25.71
2022-10-07T13:54:07.977Z,25.66
2022-10-07T13:55:20.042Z,25.66
2022-10-07T13:56:24.607Z,25.66
2022-10-07T13:57:29.258Z,25.69
2022-10-07T13:58:33.186Z,25.71
2022-10-07T13:59:36.842Z,25.69
2022-10-07T14:00:44.425Z,25.69
2022-10-07T14:02:01.339Z,25.67
2022-10-07T14:03:13.269Z,25.69
2022-10-07T14:04:14.721Z,25.73
2022-10-07T14:05:22.779Z,25.68
2022-10-07T14:06:44.862Z,25.66
2022-10-07T14:07:46.459Z,25.73
2022-10-07T14:08:51.392Z,25.69
2022-10-07T14:10:04.879Z,25.66
2022-10-07T14:11:21.710Z,25.68
2022-10-07T14:12:44.733Z,25.67
2022-10-07T14:13:46.645Z,25.71
2022-10-07T14:14:56.093Z,25.68
2022-10-07T14:15:59.381Z,25.68
2022-10-07T14:17:01.117Z,25.66
2022-10-07T14:18:06.425Z,25.66
2022-10-07T14:19:20.599Z,25.67
2022-10-07T14:20:32.560Z,25.69
2022-10-07T14:21:41.077Z,25.69
2022-10-07T14:22:43.627Z,25.71